createdAt,value
2023-02-26T00:05:51.844Z,91.85
2023-02-26T00:11:17.111Z,91.83
2023-02-26T00:16:42.137Z,91.56
2023-02-26T00:22:07.479Z,91.70
2023-02-26T00:27:31.972Z,91.68
2023-02-26T00:32:56.661Z,91.69
2023-02-26T00:38:20.673Z,91.46
2023-02-26T00:43:45.452Z,91.20
2023-02-26T00:49:28.557Z,91.06
2023-02-26T00:54:53.540Z,91.13
2023-02-26T01:00:18.621Z,91.24
2023-02-26T01:05:42.971Z,91.12
2023-02-26T01:11:07.292Z,91.48
2023-02-26T01:16:38.126Z,91.61
2023-02-26T01:22:34.429Z,91.60
2023-02-26T01:27:59.187Z,91.69
2023-02-26T01:33:39.886Z,91.58
2023-02-26T01:39:25.878Z,91.44
2023-02-26T01:45:21.713Z,90.74
2023-02-26T01:50:45.761Z,90.95
2023-02-26T01:56:20.249Z,90.98
2023-02-26T02:01:44.987Z,91.16
2023-02-26T02:07:10.004Z,91.00
2023-02-26T02:12:51.088Z,91.21
2023-02-26T02:18:23.273Z,91.30
2023-02-26T02:24:06.918Z,91.57
2023-02-26T02:29:52.175Z,91.51
2023-02-26T02:35:27.169Z,91.50
2023-02-26T02:40:59.109Z,91.15
2023-02-26T02:46:29.222Z,91.05
2023-02-26T02:52:03.730Z,90.85
2023-02-26T02:57:37.560Z,90.30
2023-02-26T03:03:13.977Z,90.51
2023-02-26T03:08:42.681Z,89.94
2023-02-26T03:14:10.514Z,89.91
2023-02-26T03:19:44.942Z,89.99
2023-02-26T03:25:22.713Z,89.89
2023-02-26T03:31:04.782Z,90.15
2023-02-26T03:36:54.726Z,89.93
2023-02-26T03:42:44.891Z,89.85
2023-02-26T03:48:14.422Z,89.76
2023-02-26T03:54:03.367Z,89.88
2023-02-26T03:59:30.332Z,88.76
2023-02-26T04:05:21.201Z,88.53
2023-02-26T04:10:53.431Z,88.76
2023-02-26T04:16:19.233Z,89.02
2023-02-26T04:21:44.233Z,88.93
2023-02-26T04:27:08.652Z,89.04
2023-02-26T04:32:33.590Z,88.71
2023-02-26T04:37:58.159Z,89.02
2023-02-26T04:43:22.586Z,88.93
2023-02-26T04:48:57.045Z,88.57
2023-02-26T04:54:22.575Z,88.68
2023-02-26T04:59:46.845Z,88.63
2023-02-26T05:05:10.769Z,89.10
2023-02-26T05:10:35.008Z,89.40
2023-02-26T05:15:58.900Z,89.20
2023-02-26T05:21:26.110Z,89.15
2023-02-26T05:26:51.067Z,89.06
2023-02-26T05:32:15.325Z,89.43
2023-02-26T05:37:40.918Z,89.16
2023-02-26T05:43:05.655Z,89.05
2023-02-26T05:48:30.114Z,89.08
2023-02-26T05:53:55.141Z,88.97
2023-02-26T05:59:19.933Z,89.05
2023-02-26T06:04:44.377Z,88.98
2023-02-26T06:10:09.038Z,89.05
2023-02-26T06:15:33.698Z,89.07
2023-02-26T06:20:57.894Z,88.88
2023-02-26T06:26:23.881Z,88.90
2023-02-26T06:31:48.953Z,88.53
2023-02-26T06:37:13.234Z,88.76
2023-02-26T06:42:37.914Z,88.53
2023-02-26T06:48:02.488Z,88.62
2023-02-26T06:53:26.887Z,88.50
2023-02-26T06:58:52.477Z,88.33
2023-02-26T07:04:19.762Z,88.47
2023-02-26T07:09:46.099Z,88.67
2023-02-26T07:15:11.352Z,88.99
2023-02-26T07:20:35.501Z,88.86
2023-02-26T07:25:59.719Z,88.71
2023-02-26T07:31:25.264Z,88.47
2023-02-26T07:36:50.821Z,88.41
2023-02-26T07:42:15.480Z,88.41
2023-02-26T07:47:39.941Z,87.81
2023-02-26T07:53:03.873Z,87.95
2023-02-26T07:58:28.765Z,87.06
2023-02-26T08:03:53.318Z,87.47
2023-02-26T08:09:18.820Z,87.38
2023-02-26T08:14:43.140Z,86.24
2023-02-26T08:20:08.958Z,86.30
2023-02-26T08:25:33.886Z,86.05
2023-02-26T08:30:58.484Z,86.23
2023-02-26T08:36:24.001Z,85.98
2023-02-26T08:41:48.672Z,85.88
2023-02-26T08:47:15.154Z,85.35
2023-02-26T08:52:41.255Z,85.67
2023-02-26T08:58:06.176Z,86.43
2023-02-26T09:03:34.218Z,86.18
2023-02-26T09:08:58.897Z,85.78
2023-02-26T09:14:23.944Z,86.57
2023-02-26T09:19:48.080Z,86.72
2023-02-26T09:25:12.795Z,87.20
2023-02-26T09:30:36.944Z,86.94
2023-02-26T09:36:01.120Z,86.97
2023-02-26T09:41:32.788Z,86.95
2023-02-26T09:47:19.088Z,86.87
2023-02-26T09:52:53.999Z,86.95
2023-02-26T09:58:38.140Z,87.05
2023-02-26T10:04:14.595Z,87.63
2023-02-26T10:10:11.296Z,87.07
2023-02-26T10:15:43.614Z,87.19
2023-02-26T10:21:15.681Z,87.08
2023-02-26T10:26:50.281Z,86.70
2023-02-26T10:32:18.037Z,85.96
2023-02-26T10:37:52.650Z,85.65
2023-02-26T10:43:43.256Z,85.86
2023-02-26T10:49:33.120Z,86.11
2023-02-26T10:55:07.611Z,85.79
2023-02-26T11:00:43.357Z,85.43
2023-02-26T11:06:08.763Z,85.09
2023-02-26T11:11:43.990Z,84.69
2023-02-26T11:17:17.171Z,84.70
2023-02-26T11:22:57.933Z,85.22
2023-02-26T11:28:32.625Z,84.80
2023-02-26T11:34:05.728Z,84.62
2023-02-26T11:39:34.957Z,84.68
2023-02-26T11:44:59.517Z,83.34
2023-02-26T11:50:26.542Z,83.67
2023-02-26T11:56:00.603Z,82.42
2023-02-26T12:01:30.090Z,80.78
2023-02-26T12:06:55.743Z,78.98
2023-02-26T12:12:28.466Z,79.17
2023-02-26T12:18:18.028Z,79.98
2023-02-26T12:24:10.878Z,81.07
2023-02-26T12:30:01.716Z,80.58
2023-02-26T12:35:35.477Z,81.30
2023-02-26T12:40:59.849Z,81.37
2023-02-26T12:46:41.362Z,81.77
2023-02-26T12:52:26.989Z,79.77
2023-02-26T12:58:05.514Z,80.56
2023-02-26T13:03:55.358Z,80.64
2023-02-26T13:09:34.950Z,80.42
2023-02-26T13:15:14.616Z,79.56
2023-02-26T13:20:45.923Z,79.33
2023-02-26T13:26:16.465Z,78.03
2023-02-26T13:31:49.936Z,75.48
2023-02-26T13:37:28.839Z,73.09
2023-02-26T13:43:31.557Z,73.40
2023-02-26T13:49:24.386Z,72.88
2023-02-26T13:54:49.455Z,73.50
2023-02-26T14:00:29.008Z,74.73
2023-02-26T14:06:07.767Z,75.64
2023-02-26T14:11:46.894Z,75.53
2023-02-26T14:17:11.713Z,74.82
2023-02-26T14:22:43.581Z,73.75
2023-02-26T14:28:26.655Z,74.61
2023-02-26T14:34:10.334Z,74.53
2023-02-26T14:39:46.894Z,73.44
2023-02-26T14:45:14.645Z,74.70
2023-02-26T14:50:45.146Z,75.21
2023-02-26T14:56:32.052Z,75.10
2023-02-26T15:02:27.280Z,75.38
2023-02-26T15:07:59.068Z,75.29
2023-02-26T15:14:01.244Z,74.92
2023-02-26T15:19:33.647Z,75.51
2023-02-26T15:24:59.483Z,74.49
2023-02-26T15:30:25.021Z,74.51
2023-02-26T15:35:52.242Z,74.10
2023-02-26T15:41:18.562Z,74.37
2023-02-26T15:46:49.515Z,74.11
2023-02-26T15:52:18.237Z,73.51
2023-02-26T15:57:46.395Z,75.12
2023-02-26T16:03:11.038Z,75.34
2023-02-26T16:08:35.718Z,75.99
2023-02-26T16:14:01.320Z,76.88
2023-02-26T16:19:41.935Z,77.91
2023-02-26T16:25:08.792Z,78.97
2023-02-26T16:30:38.126Z,78.87
2023-02-26T16:36:19.102Z,78.96
2023-02-26T16:41:47.447Z,78.68
2023-02-26T16:47:11.517Z,78.76
2023-02-26T16:52:36.088Z,78.78
2023-02-26T16:58:06.262Z,79.27
2023-02-26T17:03:31.652Z,79.97
2023-02-26T17:08:59.208Z,79.97
2023-02-26T17:14:26.021Z,80.16
2023-02-26T17:19:51.112Z,80.42
2023-02-26T17:25:21.187Z,81.06
2023-02-26T17:30:46.712Z,81.81
2023-02-26T17:36:16.450Z,81.82
2023-02-26T17:41:43.899Z,82.03
2023-02-26T17:47:15.427Z,81.60
2023-02-26T17:52:39.520Z,81.80
2023-02-26T17:58:06.829Z,82.09
2023-02-26T18:03:31.401Z,81.99
2023-02-26T18:08:56.080Z,81.98
2023-02-26T18:14:19.860Z,81.78
2023-02-26T18:19:44.003Z,82.11
2023-02-26T18:25:09.829Z,82.30
2023-02-26T18:30:36.813Z,82.64
2023-02-26T18:36:01.534Z,82.53
2023-02-26T18:41:27.466Z,82.34
2023-02-26T18:46:52.590Z,82.18
2023-02-26T18:52:17.037Z,82.40
2023-02-26T18:57:42.703Z,82.25
2023-02-26T19:03:09.599Z,81.92
2023-02-26T19:08:35.093Z,82.12
2023-02-26T19:14:01.711Z,82.32
2023-02-26T19:19:25.953Z,81.98
2023-02-26T19:24:50.255Z,81.79
2023-02-26T19:30:14.254Z,81.34
2023-02-26T19:35:39.612Z,81.80
2023-02-26T19:41:04.722Z,81.41
2023-02-26T19:46:30.360Z,81.30
2023-02-26T19:51:55.372Z,81.49
2023-02-26T19:57:20.552Z,81.95
2023-02-26T20:02:46.362Z,82.15
2023-02-26T20:08:11.519Z,82.21
2023-02-26T20:13:37.578Z,82.02
2023-02-26T20:19:02.361Z,82.08
2023-02-26T20:24:26.813Z,82.25
2023-02-26T20:29:51.996Z,81.87
2023-02-26T20:35:16.476Z,81.61
2023-02-26T20:40:40.961Z,81.40
2023-02-26T20:46:06.269Z,81.82
2023-02-26T20:51:30.813Z,81.71
2023-02-26T20:56:55.178Z,81.65
2023-02-26T21:02:21.089Z,81.40
2023-02-26T21:07:45.242Z,81.59
2023-02-26T21:13:12.282Z,81.63
2023-02-26T21:18:36.898Z,81.76
2023-02-26T21:24:01.891Z,81.78
2023-02-26T21:29:27.069Z,81.77
2023-02-26T21:34:51.048Z,82.04
2023-02-26T21:40:15.972Z,82.25
2023-02-26T21:45:41.960Z,81.70
2023-02-26T21:51:07.061Z,81.80
2023-02-26T21:56:31.690Z,81.83
2023-02-26T22:01:56.657Z,81.46
2023-02-26T22:07:20.982Z,81.99
2023-02-26T22:12:45.203Z,82.02
2023-02-26T22:18:09.527Z,81.90
2023-02-26T22:23:34.473Z,81.27
2023-02-26T22:29:01.021Z,81.28
2023-02-26T22:34:25.475Z,81.11
2023-02-26T22:39:49.962Z,80.32
2023-02-26T22:45:17.431Z,80.49
2023-02-26T22:50:42.801Z,79.99
2023-02-26T22:56:07.506Z,80.86
2023-02-26T23:01:31.855Z,81.07
2023-02-26T23:06:56.471Z,81.05
2023-02-26T23:12:20.614Z,81.46
2023-02-26T23:17:45.060Z,81.47
2023-02-26T23:23:09.637Z,81.85
2023-02-26T23:28:35.117Z,81.81
2023-02-26T23:34:00.595Z,81.39
2023-02-26T23:39:26.196Z,81.59
2023-02-26T23:44:50.345Z,81.66
2023-02-26T23:50:14.869Z,81.51
2023-02-26T23:55:39.178Z,81.47
